Observations for VENEZIA TESSERA, Italy (LIPZ)

LIPZ 240850Z 14005KT 120V180 CAVOK 27/18 Q1018 NOSIG
LIPZ 240820Z 14005KT 120V180 CAVOK 26/20 Q1018 NOSIG
LIPZ 240750Z 17003KT 130V210 CAVOK 26/20 Q1018 NOSIG
LIPZ 240720Z 10004KT 070V140 CAVOK 26/19 Q1018 NOSIG
LIPZ 240650Z VRB02KT CAVOK 25/19 Q1018 NOSIG
LIPZ 240620Z 03004KT 360V060 CAVOK 25/20 Q1018 NOSIG
LIPZ 240550Z 02003KT CAVOK 24/20 Q1017 NOSIG
LIPZ 240520Z 05004KT 9000 NSC 22/19 Q1018 NOSIG 
LIPZ 240450Z 03005KT 7000 FEW060 21/19 Q1018 NOSIG  
LIPZ 240420Z 02005KT 8000 FEW040 21/18 Q1018 NOSIG  
LIPZ 240350Z 36005KT 330V030 8000 FEW030 21/18 Q1017 NOSIG  
LIPZ 240320Z 34003KT CAVOK 21/18 Q1017 NOSIG
LIPZ 240250Z 33005KT CAVOK 21/18 Q1017 NOSIG
LIPZ 240220Z 34002KT CAVOK 22/19 Q1017 NOSIG
LIPZ 240150Z 34001KT CAVOK 21/19 Q1017 NOSIG
LIPZ 240120Z 06003KT CAVOK 22/19 Q1017 NOSIG
LIPZ 240050Z 05004KT CAVOK 22/18 Q1017 NOSIG
LIPZ 240020Z 05003KT CAVOK 22/19 Q1017 NOSIG
LIPZ 232350Z 04004KT CAVOK 22/19 Q1017 NOSIG
LIPZ 232320Z 01005KT 300V040 CAVOK 23/19 Q1017 NOSIG
LIPZ 232250Z 32003KT CAVOK 24/19 Q1016 NOSIG
LIPZ 232220Z 21005KT CAVOK 24/19 Q1016 NOSIG
LIPZ 232150Z 20005KT CAVOK 24/19 Q1016 NOSIG
LIPZ 232120Z 20004KT CAVOK 25/20 Q1016 NOSIG
LIPZ 232050Z 19003KT 140V230 CAVOK 25/21 Q1016 NOSIG
LIPZ 232020Z 16003KT 130V190 CAVOK 25/20 Q1015 NOSIG
LIPZ 231950Z 16004KT 120V190 CAVOK 25/20 Q1015 NOSIG
LIPZ 231920Z 17004KT 140V200 CAVOK 25/19 Q1015 NOSIG
LIPZ 231850Z 14006KT CAVOK 26/19 Q1014 NOSIG
LIPZ 231820Z 15004KT 120V200 CAVOK 26/19 Q1014 NOSIG
LIPZ 231750Z 16004KT 120V200 CAVOK 27/18 Q1014 NOSIG
LIPZ 231720Z 15004KT 120V190 CAVOK 27/18 Q1014 NOSIG
LIPZ 231650Z 15005KT CAVOK 27/18 Q1014 NOSIG
LIPZ 231620Z 15005KT CAVOK 27/19 Q1014 NOSIG
LIPZ 231550Z 14006KT CAVOK 28/19 Q1014 NOSIG
LIPZ 231520Z 15005KT 120V190 CAVOK 28/18 Q1014 NOSIG
LIPZ 231450Z 16005KT 130V200 CAVOK 28/19 Q1014 NOSIG
LIPZ 231420Z 16005KT 130V200 CAVOK 28/19 Q1014 NOSIG
LIPZ 231350Z 17005KT 130V210 CAVOK 28/20 Q1014 NOSIG
LIPZ 231320Z 16005KT 120V210 CAVOK 27/20 Q1014 NOSIG
LIPZ 231250Z 15006KT 120V180 CAVOK 27/20 Q1014 NOSIG
LIPZ 231220Z 15006KT 120V190 CAVOK 26/20 Q1014 NOSIG
LIPZ 231150Z 14007KT 9999 FEW015 26/20 Q1014 NOSIG  
LIPZ 231120Z 14006KT 110V180 9999 FEW015 26/20 Q1014 NOSIG  
LIPZ 231050Z 16006KT 120V190 9999 FEW015 26/20 Q1014 NOSIG  
LIPZ 231020Z 17004KT 140V200 9999 FEW015 26/20 Q1014 NOSIG  
LIPZ 230950Z 19005KT 150V210 9999 FEW015 25/20 Q1014 NOSIG  
LIPZ 230920Z 17005KT 130V200 9999 FEW015 25/19 Q1014 NOSIG  
LIPZ 230850Z 19004KT 150V210 9999 FEW015 24/19 Q1014 NOSIG